createdAt,value
2018-01-01T00:00:05.288Z,990.37
2018-01-01T00:01:05.309Z,990.49
2018-01-01T00:02:05.334Z,990.42
2018-01-01T00:03:05.355Z,990.26
2018-01-01T00:04:05.373Z,990.24
2018-01-01T00:05:05.395Z,990.16
2018-01-01T00:06:05.410Z,990.20
2018-01-01T00:07:05.440Z,990.24
2018-01-01T00:08:05.452Z,990.30
2018-01-01T00:09:05.477Z,990.26
2018-01-01T00:10:05.493Z,990.28
2018-01-01T00:11:05.518Z,990.27
2018-01-01T00:12:05.535Z,990.30
2018-01-01T00:13:05.561Z,990.28
2018-01-01T00:14:05.576Z,990.30
2018-01-01T00:15:05.595Z,990.33
2018-01-01T00:16:05.622Z,990.37
2018-01-01T00:17:05.643Z,990.39
2018-01-01T00:18:05.672Z,990.47
2018-01-01T00:19:05.700Z,990.54
2018-01-01T00:20:05.725Z,990.48
2018-01-01T00:21:05.719Z,990.50
2018-01-01T00:22:05.779Z,990.63
2018-01-01T00:23:05.767Z,990.59
2018-01-01T00:24:05.781Z,990.64
2018-01-01T00:25:05.802Z,990.55
2018-01-01T00:26:05.827Z,990.57
2018-01-01T00:27:05.846Z,990.55
2018-01-01T00:28:05.862Z,990.55
2018-01-01T00:29:05.883Z,990.64
2018-01-01T00:30:05.910Z,990.56
2018-01-01T00:31:05.924Z,990.54
2018-01-01T00:32:05.950Z,990.51
2018-01-01T00:33:05.966Z,990.60
2018-01-01T00:34:05.990Z,990.68
2018-01-01T00:35:06.051Z,990.69
2018-01-01T00:36:06.031Z,990.74
2018-01-01T00:37:06.045Z,990.72
2018-01-01T00:38:06.072Z,990.69
2018-01-01T00:39:06.093Z,990.73
2018-01-01T00:40:06.106Z,990.74
2018-01-01T00:41:06.128Z,990.75
2018-01-01T00:42:06.153Z,990.81
2018-01-01T00:43:06.174Z,990.83
2018-01-01T00:44:06.189Z,990.79
2018-01-01T00:45:06.216Z,990.90
2018-01-01T00:46:06.230Z,990.72
2018-01-01T00:47:06.256Z,990.75
2018-01-01T00:48:06.270Z,990.83
2018-01-01T00:49:06.296Z,990.69
2018-01-01T00:50:06.311Z,990.64
2018-01-01T00:51:06.337Z,990.71
2018-01-01T00:52:06.353Z,990.84
2018-01-01T00:53:06.372Z,990.76
2018-01-01T00:54:06.398Z,990.67
2018-01-01T00:55:06.413Z,990.77
2018-01-01T00:56:06.439Z,990.72
2018-01-01T00:57:06.453Z,990.73
2018-01-01T00:58:06.478Z,990.74
2018-01-01T00:59:06.495Z,990.74
2018-01-01T01:00:06.520Z,990.89
2018-01-01T01:01:06.534Z,990.78
2018-01-01T01:02:06.560Z,990.83
2018-01-01T01:03:06.588Z,990.73
2018-01-01T01:04:06.601Z,990.84
2018-01-01T01:05:06.616Z,990.77
2018-01-01T01:06:06.642Z,990.65
2018-01-01T01:07:06.655Z,990.59
2018-01-01T01:08:06.683Z,990.70
2018-01-01T01:09:06.697Z,990.63
2018-01-01T01:10:06.721Z,990.61
2018-01-01T01:11:06.735Z,990.56
2018-01-01T01:12:06.763Z,990.66
2018-01-01T01:13:06.777Z,990.64
2018-01-01T01:14:06.802Z,990.63
2018-01-01T01:15:06.817Z,990.68
2018-01-01T01:16:06.843Z,990.70
2018-01-01T01:17:06.865Z,990.64
2018-01-01T01:18:06.878Z,990.74
2018-01-01T01:19:06.905Z,990.65
2018-01-01T01:20:06.919Z,990.74
2018-01-01T01:21:06.944Z,990.61
2018-01-01T01:22:06.959Z,990.82
2018-01-01T01:23:06.984Z,990.72
2018-01-01T01:24:06.999Z,990.74
2018-01-01T01:25:07.025Z,990.84
2018-01-01T01:26:07.039Z,990.68
2018-01-01T01:27:07.065Z,990.82
2018-01-01T01:28:07.080Z,990.71
2018-01-01T01:29:07.110Z,990.69
2018-01-01T01:30:07.119Z,990.69
2018-01-01T01:31:07.146Z,990.72
2018-01-01T01:32:07.161Z,990.80
2018-01-01T01:33:07.188Z,990.68
2018-01-01T01:34:07.200Z,990.65
2018-01-01T01:35:07.221Z,990.69
2018-01-01T01:36:07.246Z,990.84
2018-01-01T01:37:07.268Z,990.74
2018-01-01T01:38:07.282Z,990.66
2018-01-01T01:39:07.303Z,990.69
2018-01-01T01:40:07.328Z,990.72
2018-01-01T01:41:07.348Z,990.81
2018-01-01T01:42:07.363Z,990.81
2018-01-01T01:43:07.383Z,990.83
2018-01-01T01:44:07.407Z,990.73
2018-01-01T01:45:07.428Z,990.63
2018-01-01T01:46:07.443Z,990.82
2018-01-01T01:47:07.463Z,990.80
2018-01-01T01:48:07.490Z,990.61
2018-01-01T01:49:07.504Z,990.78
2018-01-01T01:50:07.529Z,990.71
2018-01-01T01:51:07.549Z,990.65
2018-01-01T01:52:07.564Z,990.73
2018-01-01T01:53:07.583Z,990.71
2018-01-01T01:54:07.608Z,990.78
2018-01-01T01:55:07.629Z,990.78
2018-01-01T01:56:07.644Z,990.65
2018-01-01T01:57:07.665Z,990.72
2018-01-01T01:58:07.689Z,990.80
2018-01-01T01:59:07.710Z,990.74
2018-01-01T02:00:07.724Z,990.74
2018-01-01T02:01:07.744Z,990.86
2018-01-01T02:02:07.770Z,990.78
2018-01-01T02:03:07.790Z,990.85
2018-01-01T02:04:07.805Z,990.82
2018-01-01T02:05:07.825Z,990.78
2018-01-01T02:06:07.849Z,990.88
2018-01-01T02:07:07.866Z,990.72
2018-01-01T02:08:07.889Z,990.74
2018-01-01T02:09:07.905Z,990.76
2018-01-01T02:10:07.929Z,990.77
2018-01-01T02:11:07.945Z,990.65
2018-01-01T02:12:07.972Z,990.88
2018-01-01T02:13:07.991Z,990.86
2018-01-01T02:14:08.006Z,990.78
2018-01-01T02:15:08.026Z,990.74
2018-01-01T02:16:08.052Z,990.74
2018-01-01T02:17:08.072Z,990.75
2018-01-01T02:18:08.085Z,990.75
2018-01-01T02:19:08.105Z,990.84
2018-01-01T02:20:08.133Z,990.69
2018-01-01T02:21:08.152Z,990.77
2018-01-01T02:22:08.166Z,990.78
2018-01-01T02:23:08.192Z,990.73
2018-01-01T02:24:08.207Z,990.85
2018-01-01T02:25:08.235Z,990.69
2018-01-01T02:26:08.247Z,990.67
2018-01-01T02:27:08.276Z,990.64
2018-01-01T02:28:08.287Z,990.70
2018-01-01T02:29:08.308Z,990.86
2018-01-01T02:30:08.333Z,990.86
2018-01-01T02:31:08.347Z,990.79
2018-01-01T02:32:08.375Z,990.79
2018-01-01T02:33:08.388Z,990.77
2018-01-01T02:34:08.413Z,990.64
2018-01-01T02:35:08.428Z,990.60
2018-01-01T02:36:08.453Z,990.67
2018-01-01T02:37:08.475Z,990.77
2018-01-01T02:38:08.488Z,990.62
2018-01-01T02:39:08.508Z,990.53
2018-01-01T02:40:08.535Z,990.77
2018-01-01T02:41:08.558Z,990.66
2018-01-01T02:42:08.569Z,990.72
2018-01-01T02:43:08.590Z,990.69
2018-01-01T02:44:08.630Z,990.72
2018-01-01T02:45:08.636Z,990.62
2018-01-01T02:46:08.698Z,990.62
2018-01-01T02:47:08.674Z,990.48
2018-01-01T02:48:08.689Z,990.53
2018-01-01T02:49:08.716Z,990.65
2018-01-01T02:50:08.729Z,990.67
2018-01-01T02:51:08.756Z,990.60
2018-01-01T02:52:08.775Z,990.59
2018-01-01T02:53:08.790Z,990.72
2018-01-01T02:54:08.814Z,990.69
2018-01-01T02:55:08.835Z,990.65
2018-01-01T02:56:08.849Z,990.69
2018-01-01T02:57:08.870Z,990.64
2018-01-01T02:58:08.895Z,990.74
2018-01-01T02:59:08.916Z,990.71
2018-01-01T03:00:08.929Z,990.56
2018-01-01T03:01:08.956Z,990.70
2018-01-01T03:02:08.969Z,990.60
2018-01-01T03:03:08.989Z,990.76
2018-01-01T03:04:09.015Z,990.59
2018-01-01T03:05:09.036Z,990.69
2018-01-01T03:06:09.050Z,990.67
2018-01-01T03:07:09.070Z,990.58
2018-01-01T03:08:09.096Z,990.67
2018-01-01T03:09:09.110Z,990.62
2018-01-01T03:10:09.135Z,990.55
2018-01-01T03:11:09.149Z,990.58
2018-01-01T03:12:09.176Z,990.51
2018-01-01T03:13:09.197Z,990.55
2018-01-01T03:14:09.208Z,990.65
2018-01-01T03:15:09.234Z,990.47
2018-01-01T03:16:09.254Z,990.62
2018-01-01T03:17:09.270Z,990.59
2018-01-01T03:18:09.294Z,990.58
2018-01-01T03:19:09.314Z,990.40
2018-01-01T03:20:09.330Z,990.44
2018-01-01T03:21:09.355Z,990.43
2018-01-01T03:22:09.368Z,990.52
2018-01-01T03:23:09.396Z,990.59
2018-01-01T03:24:09.409Z,990.49
2018-01-01T03:25:09.434Z,990.56
2018-01-01T03:26:09.453Z,990.43
2018-01-01T03:27:09.473Z,990.50
2018-01-01T03:28:09.486Z,990.58
2018-01-01T03:29:09.507Z,990.47
2018-01-01T03:30:09.538Z,990.52
2018-01-01T03:31:09.549Z,990.35
2018-01-01T03:32:09.567Z,990.44
2018-01-01T03:33:09.593Z,990.50
2018-01-01T03:34:09.606Z,990.47
2018-01-01T03:35:09.635Z,990.65
2018-01-01T03:36:09.648Z,990.59
2018-01-01T03:37:09.667Z,990.58
2018-01-01T03:38:09.691Z,990.53
2018-01-01T03:39:09.712Z,990.55
2018-01-01T03:40:09.726Z,990.69
2018-01-01T03:41:09.745Z,990.82
2018-01-01T03:42:09.770Z,990.87
2018-01-01T03:43:09.784Z,990.82
2018-01-01T03:44:09.805Z,990.90
2018-01-01T03:45:09.826Z,990.82
2018-01-01T03:46:09.843Z,991.05
2018-01-01T03:47:09.864Z,990.98
2018-01-01T03:48:09.889Z,991.28
2018-01-01T03:49:09.911Z,990.93
2018-01-01T03:50:09.924Z,991.06
2018-01-01T03:51:09.949Z,991.07
2018-01-01T03:52:09.965Z,990.87
2018-01-01T03:53:09.982Z,991.02
2018-01-01T03:54:10.009Z,990.98
2018-01-01T03:55:10.029Z,990.93
2018-01-01T03:56:10.042Z,990.92
2018-01-01T03:57:10.068Z,990.91
2018-01-01T03:58:10.087Z,990.99
2018-01-01T03:59:10.106Z,990.94
2018-01-01T04:00:10.126Z,990.93
2018-01-01T04:01:10.141Z,991.02
2018-01-01T04:02:10.166Z,990.90
2018-01-01T04:03:10.185Z,990.99
2018-01-01T04:04:10.200Z,990.97
2018-01-01T04:05:10.224Z,991.04
2018-01-01T04:06:10.238Z,990.94
2018-01-01T04:07:10.257Z,991.04
2018-01-01T04:08:10.283Z,991.04
2018-01-01T04:09:10.299Z,991.06
2018-01-01T04:10:10.323Z,990.96
2018-01-01T04:11:10.336Z,991.00
2018-01-01T04:12:10.360Z,991.01
2018-01-01T04:13:10.375Z,991.01
2018-01-01T04:14:10.397Z,991.04
2018-01-01T04:15:10.414Z,991.08
2018-01-01T04:16:10.439Z,991.07
2018-01-01T04:17:10.458Z,991.13
2018-01-01T04:18:10.478Z,990.96
2018-01-01T04:19:10.498Z,991.03
2018-01-01T04:20:10.518Z,991.11
2018-01-01T04:21:10.531Z,991.09
2018-01-01T04:22:10.555Z,991.11
2018-01-01T04:23:10.576Z,991.17
2018-01-01T04:24:10.597Z,991.14
2018-01-01T04:25:10.608Z,991.17
2018-01-01T04:26:10.634Z,991.28
2018-01-01T04:27:10.655Z,991.26
2018-01-01T04:28:10.668Z,991.23
2018-01-01T04:29:10.693Z,991.20
2018-01-01T04:30:10.712Z,991.12
2018-01-01T04:31:10.734Z,991.29
2018-01-01T04:32:10.746Z,991.34
2018-01-01T04:33:10.765Z,991.36
2018-01-01T04:34:10.789Z,991.30
2018-01-01T04:35:10.805Z,991.33
2018-01-01T04:36:10.823Z,991.39
2018-01-01T04:37:10.851Z,991.50
2018-01-01T04:38:10.863Z,991.48
2018-01-01T04:39:10.888Z,991.53
2018-01-01T04:40:10.908Z,991.53
2018-01-01T04:41:10.929Z,991.46
2018-01-01T04:42:10.941Z,991.55
2018-01-01T04:43:10.960Z,991.50
2018-01-01T04:44:10.987Z,991.53
2018-01-01T04:45:11.001Z,991.55
2018-01-01T04:46:11.020Z,991.56
2018-01-01T04:47:11.039Z,991.73
2018-01-01T04:48:11.057Z,991.56
2018-01-01T04:49:11.084Z,991.66
2018-01-01T04:50:11.096Z,991.74
2018-01-01T04:51:11.116Z,991.80
2018-01-01T04:52:11.144Z,991.74
2018-01-01T04:53:11.156Z,991.74
2018-01-01T04:54:11.183Z,991.75
2018-01-01T04:55:11.196Z,991.78
2018-01-01T04:56:11.221Z,991.77
2018-01-01T04:57:11.233Z,991.76
2018-01-01T04:58:11.259Z,991.82
2018-01-01T04:59:11.274Z,991.87
2018-01-01T05:00:11.298Z,991.80
2018-01-01T05:01:11.320Z,991.89
2018-01-01T05:02:11.336Z,991.80
2018-01-01T05:03:11.351Z,991.79
2018-01-01T05:04:11.379Z,991.87
2018-01-01T05:05:11.390Z,991.93
2018-01-01T05:06:11.415Z,991.90
2018-01-01T05:07:11.433Z,991.99
2018-01-01T05:08:11.454Z,992.11
2018-01-01T05:09:11.473Z,991.91
2018-01-01T05:10:11.487Z,992.00
2018-01-01T05:11:11.515Z,992.07
2018-01-01T05:12:11.526Z,991.98
2018-01-01T05:13:11.550Z,991.97
2018-01-01T05:14:11.564Z,991.99
2018-01-01T05:15:11.590Z,992.16
2018-01-01T05:16:11.604Z,992.04
2018-01-01T05:17:11.633Z,992.27
2018-01-01T05:18:11.642Z,992.17
2018-01-01T05:19:11.662Z,992.11
2018-01-01T05:20:11.688Z,992.16
2018-01-01T05:21:11.708Z,992.24
2018-01-01T05:22:11.721Z,992.27
2018-01-01T05:23:11.741Z,992.19
2018-01-01T05:24:11.765Z,992.24
2018-01-01T05:25:11.787Z,992.36
2018-01-01T05:26:11.799Z,992.31
2018-01-01T05:27:11.824Z,992.37
2018-01-01T05:28:11.840Z,992.34
2018-01-01T05:29:11.864Z,992.44
2018-01-01T05:30:11.922Z,992.35
2018-01-01T05:31:11.903Z,992.39
2018-01-01T05:32:11.918Z,992.47
2018-01-01T05:33:11.936Z,992.45
2018-01-01T05:34:11.961Z,992.55
2018-01-01T05:35:11.983Z,992.55
2018-01-01T05:36:11.994Z,992.55
2018-01-01T05:37:12.015Z,992.54
2018-01-01T05:38:12.039Z,992.63
2018-01-01T05:39:12.057Z,992.67
2018-01-01T05:40:12.073Z,992.68
2018-01-01T05:41:12.099Z,992.76
2018-01-01T05:42:12.110Z,992.79
2018-01-01T05:43:12.130Z,992.87
2018-01-01T05:44:12.156Z,992.89
2018-01-01T05:45:12.175Z,992.88
2018-01-01T05:46:12.189Z,992.84
2018-01-01T05:47:12.209Z,992.88
2018-01-01T05:48:12.233Z,992.86
2018-01-01T05:49:12.249Z,992.85
2018-01-01T05:50:12.272Z,992.89
2018-01-01T05:51:12.287Z,992.89
2018-01-01T05:52:12.313Z,992.92
2018-01-01T05:53:12.325Z,992.88
2018-01-01T05:54:12.350Z,992.81
2018-01-01T05:55:12.365Z,992.92
2018-01-01T05:56:12.390Z,992.89
2018-01-01T05:57:12.409Z,993.01
2018-01-01T05:58:12.423Z,993.07
2018-01-01T05:59:12.441Z,993.02
2018-01-01T06:00:12.467Z,993.02
2018-01-01T06:01:12.487Z,993.03
2018-01-01T06:02:12.499Z,993.11
2018-01-01T06:03:12.519Z,993.03
2018-01-01T06:04:12.545Z,993.00
2018-01-01T06:05:12.570Z,992.98
2018-01-01T06:06:12.617Z,992.95
2018-01-01T06:07:12.603Z,992.96
2018-01-01T06:08:12.616Z,992.96
2018-01-01T06:09:12.642Z,992.97
2018-01-01T06:10:12.654Z,992.91
2018-01-01T06:11:12.679Z,992.99
2018-01-01T06:12:12.695Z,993.01
2018-01-01T06:13:12.713Z,993.03
2018-01-01T06:14:12.739Z,993.05
2018-01-01T06:15:12.755Z,993.05
2018-01-01T06:16:12.777Z,993.06
2018-01-01T06:17:12.793Z,993.14
2018-01-01T06:18:12.815Z,993.19
2018-01-01T06:19:12.829Z,993.15
2018-01-01T06:20:12.862Z,993.18
2018-01-01T06:21:12.875Z,993.16
2018-01-01T06:22:12.887Z,993.17
2018-01-01T06:23:12.908Z,993.18
2018-01-01T06:24:12.932Z,993.19
2018-01-01T06:25:12.951Z,993.19
2018-01-01T06:26:12.965Z,993.18
2018-01-01T06:27:12.983Z,993.13
2018-01-01T06:28:13.014Z,993.10
2018-01-01T06:29:13.027Z,993.06
2018-01-01T06:30:13.042Z,993.28
2018-01-01T06:31:13.062Z,993.32
2018-01-01T06:32:13.087Z,993.38
2018-01-01T06:33:13.106Z,993.42
2018-01-01T06:34:13.120Z,993.29
2018-01-01T06:35:13.142Z,993.38
2018-01-01T06:36:13.165Z,993.27
2018-01-01T06:37:13.181Z,993.30
2018-01-01T06:38:13.222Z,993.28
2018-01-01T06:39:13.221Z,993.27
2018-01-01T06:40:13.234Z,993.39
2018-01-01T06:41:13.254Z,993.23
2018-01-01T06:42:13.279Z,993.31
2018-01-01T06:43:13.298Z,993.37
2018-01-01T06:44:13.313Z,993.38
2018-01-01T06:45:13.332Z,993.37
2018-01-01T06:46:13.356Z,993.32
2018-01-01T06:47:13.377Z,993.38
2018-01-01T06:48:13.389Z,993.38
2018-01-01T06:49:13.409Z,993.35
2018-01-01T06:50:13.433Z,993.38
2018-01-01T06:51:13.453Z,993.40
2018-01-01T06:52:13.466Z,993.34
2018-01-01T06:53:13.487Z,993.24
2018-01-01T06:54:13.510Z,993.27
2018-01-01T06:55:13.523Z,993.41
2018-01-01T06:56:13.548Z,993.38
2018-01-01T06:57:13.563Z,993.33
2018-01-01T06:58:13.587Z,993.44
2018-01-01T06:59:13.601Z,993.44
2018-01-01T07:00:13.625Z,993.48
2018-01-01T07:01:13.640Z,993.61
2018-01-01T07:02:13.663Z,993.46
2018-01-01T07:03:13.678Z,993.51
2018-01-01T07:04:13.703Z,993.63
2018-01-01T07:05:13.716Z,993.69
2018-01-01T07:06:13.740Z,993.70
2018-01-01T07:07:13.754Z,993.79
2018-01-01T07:08:13.780Z,993.80
2018-01-01T07:09:13.798Z,993.83
2018-01-01T07:10:13.812Z,993.87
2018-01-01T07:11:13.837Z,993.84
2018-01-01T07:12:13.851Z,993.82
2018-01-01T07:13:13.875Z,993.84
2018-01-01T07:14:13.888Z,993.85
2018-01-01T07:15:13.914Z,993.89
2018-01-01T07:16:13.926Z,993.95
2018-01-01T07:17:13.952Z,993.97
2018-01-01T07:18:13.964Z,994.02
2018-01-01T07:19:13.989Z,994.17
2018-01-01T07:20:14.005Z,994.30
2018-01-01T07:21:14.029Z,994.42
2018-01-01T07:22:14.042Z,994.44
2018-01-01T07:23:14.075Z,994.47
2018-01-01T07:24:14.080Z,994.47
2018-01-01T07:25:14.105Z,994.36
2018-01-01T07:26:14.124Z,994.36
2018-01-01T07:27:14.146Z,994.31
2018-01-01T07:28:14.163Z,994.26
2018-01-01T07:29:14.177Z,994.32
2018-01-01T07:30:14.201Z,994.32
2018-01-01T07:31:14.220Z,994.32
2018-01-01T07:32:14.239Z,994.31
2018-01-01T07:33:14.253Z,994.36
2018-01-01T07:34:14.277Z,994.46
2018-01-01T07:35:14.290Z,994.53
2018-01-01T07:36:14.316Z,994.46
2018-01-01T07:37:14.329Z,994.50
2018-01-01T07:38:14.353Z,994.54
2018-01-01T07:39:14.366Z,994.64
2018-01-01T07:40:14.391Z,994.58
2018-01-01T07:41:14.404Z,994.47
2018-01-01T07:42:14.424Z,994.38
2018-01-01T07:43:14.448Z,994.41
2018-01-01T07:44:14.462Z,994.45
2018-01-01T07:45:14.486Z,994.58
2018-01-01T07:46:14.500Z,994.54
2018-01-01T07:47:14.518Z,994.46
2018-01-01T07:48:14.537Z,994.53
2018-01-01T07:49:14.561Z,994.45
2018-01-01T07:50:14.575Z,994.38
2018-01-01T07:51:14.599Z,994.23
2018-01-01T07:52:14.613Z,994.45
2018-01-01T07:53:14.637Z,994.44
2018-01-01T07:54:14.649Z,994.44
2018-01-01T07:55:14.674Z,994.49
2018-01-01T07:56:14.688Z,994.45
2018-01-01T07:57:14.712Z,994.48
2018-01-01T07:58:14.730Z,994.48
2018-01-01T07:59:14.742Z,994.53
2018-01-01T08:00:14.762Z,994.56
2018-01-01T08:01:14.780Z,994.53
2018-01-01T08:02:14.803Z,994.52
2018-01-01T08:03:14.819Z,994.63
2018-01-01T08:04:14.842Z,994.61
2018-01-01T08:05:14.856Z,994.59
2018-01-01T08:06:14.879Z,994.64
2018-01-01T08:07:14.898Z,994.72
2018-01-01T08:08:14.910Z,994.66
2018-01-01T08:09:14.932Z,994.64
2018-01-01T08:10:14.953Z,994.84
2018-01-01T08:11:14.973Z,994.72
2018-01-01T08:12:14.986Z,994.77
2018-01-01T08:13:15.006Z,994.78
2018-01-01T08:14:15.026Z,994.71
2018-01-01T08:15:15.042Z,994.74
2018-01-01T08:16:15.066Z,994.77
2018-01-01T08:17:15.086Z,994.80
2018-01-01T08:18:15.098Z,994.84
2018-01-01T08:19:15.124Z,994.83
2018-01-01T08:20:15.143Z,994.80
2018-01-01T08:21:15.161Z,994.79
2018-01-01T08:22:15.174Z,994.72
2018-01-01T08:23:15.193Z,994.72
2018-01-01T08:24:15.218Z,994.84
2018-01-01T08:25:15.236Z,994.82
2018-01-01T08:26:15.249Z,994.87
2018-01-01T08:27:15.269Z,994.92
2018-01-01T08:28:15.294Z,995.01
2018-01-01T08:29:15.307Z,995.01
2018-01-01T08:30:15.326Z,994.93
2018-01-01T08:31:15.349Z,994.96
2018-01-01T08:32:15.364Z,994.98
2018-01-01T08:33:15.389Z,994.97
2018-01-01T08:34:15.400Z,994.96
2018-01-01T08:35:15.420Z,994.93
2018-01-01T08:36:15.441Z,994.91
2018-01-01T08:37:15.459Z,994.92
2018-01-01T08:38:15.484Z,994.87
2018-01-01T08:39:15.499Z,994.93
2018-01-01T08:40:15.521Z,994.96
2018-01-01T08:41:15.536Z,994.97
2018-01-01T08:42:15.559Z,995.07
2018-01-01T08:43:15.574Z,994.94
2018-01-01T08:44:15.602Z,995.01
2018-01-01T08:45:15.611Z,995.08
2018-01-01T08:46:15.631Z,995.01
2018-01-01T08:47:15.649Z,995.03
2018-01-01T08:48:15.674Z,995.07
2018-01-01T08:49:15.695Z,995.08
2018-01-01T08:50:15.708Z,995.10
2018-01-01T08:51:15.731Z,995.08
2018-01-01T08:52:15.751Z,995.12
2018-01-01T08:53:15.772Z,995.05
2018-01-01T08:54:15.787Z,995.16
2018-01-01T08:55:15.808Z,995.03
2018-01-01T08:56:15.822Z,995.19
2018-01-01T08:57:15.852Z,995.09
2018-01-01T08:58:15.860Z,995.21
2018-01-01T08:59:15.885Z,995.09
2018-01-01T09:00:15.899Z,995.06
2018-01-01T09:01:15.922Z,995.08
2018-01-01T09:02:15.943Z,995.21
2018-01-01T09:03:15.962Z,995.02
2018-01-01T09:04:15.983Z,995.08
2018-01-01T09:05:15.995Z,995.14
2018-01-01T09:06:16.015Z,995.15
2018-01-01T09:07:16.040Z,995.04
2018-01-01T09:08:16.052Z,995.06
2018-01-01T09:09:16.078Z,995.21
2018-01-01T09:10:16.091Z,995.11
2018-01-01T09:11:16.116Z,995.15
2018-01-01T09:12:16.129Z,995.13
2018-01-01T09:13:16.149Z,995.12
2018-01-01T09:14:16.173Z,995.15
2018-01-01T09:15:16.194Z,995.13
2018-01-01T09:16:16.207Z,995.19
2018-01-01T09:17:16.232Z,995.13
2018-01-01T09:18:16.246Z,995.25
2018-01-01T09:19:16.271Z,995.19
2018-01-01T09:20:16.289Z,995.18
2018-01-01T09:21:16.311Z,995.18
2018-01-01T09:22:16.326Z,995.20
2018-01-01T09:23:16.347Z,995.19
2018-01-01T09:24:16.360Z,995.21
2018-01-01T09:25:16.381Z,995.24
2018-01-01T09:26:16.405Z,995.19
2018-01-01T09:27:16.418Z,995.19
2018-01-01T09:28:16.443Z,995.18
2018-01-01T09:29:16.463Z,995.16
2018-01-01T09:30:16.476Z,995.20
2018-01-01T09:31:16.498Z,995.16
2018-01-01T09:32:16.530Z,995.24
2018-01-01T09:33:16.540Z,995.22
2018-01-01T09:34:16.553Z,995.20
2018-01-01T09:35:16.578Z,995.31
2018-01-01T09:36:16.592Z,995.30
2018-01-01T09:37:16.618Z,995.25
2018-01-01T09:38:16.631Z,995.25
2018-01-01T09:39:16.656Z,995.25
2018-01-01T09:40:16.669Z,995.34
2018-01-01T09:41:16.696Z,995.24
2018-01-01T09:42:16.708Z,995.27
2018-01-01T09:43:16.733Z,995.28
2018-01-01T09:44:16.749Z,995.24
2018-01-01T09:45:16.776Z,995.30
2018-01-01T09:46:16.786Z,995.25
2018-01-01T09:47:16.812Z,995.35
2018-01-01T09:48:16.827Z,995.14
2018-01-01T09:49:16.847Z,995.27
2018-01-01T09:50:16.870Z,995.21
2018-01-01T09:51:16.887Z,995.21
2018-01-01T09:52:16.910Z,995.26
2018-01-01T09:53:16.932Z,995.17
2018-01-01T09:54:16.948Z,995.10
2018-01-01T09:55:16.965Z,995.18
2018-01-01T09:56:16.988Z,995.09
2018-01-01T09:57:17.124Z,995.17
2018-01-01T09:58:17.030Z,995.06
2018-01-01T09:59:17.044Z,995.03
2018-01-01T10:00:17.068Z,995.12
2018-01-01T10:01:17.085Z,995.05
2018-01-01T10:02:17.115Z,994.96
2018-01-01T10:03:17.122Z,995.02
2018-01-01T10:04:17.147Z,995.01
2018-01-01T10:05:17.162Z,995.00
2018-01-01T10:06:17.187Z,994.99
2018-01-01T10:07:17.207Z,994.98
2018-01-01T10:08:17.221Z,995.04
2018-01-01T10:09:17.248Z,994.92
2018-01-01T10:10:17.266Z,994.98
2018-01-01T10:11:17.287Z,994.94
2018-01-01T10:12:17.300Z,994.90
2018-01-01T10:13:17.321Z,994.91
2018-01-01T10:14:17.345Z,994.85
2018-01-01T10:15:17.368Z,994.80
2018-01-01T10:16:17.381Z,994.75
2018-01-01T10:17:17.400Z,994.74
2018-01-01T10:18:17.425Z,994.88
2018-01-01T10:19:17.445Z,994.93
2018-01-01T10:20:17.460Z,994.89
2018-01-01T10:21:17.485Z,994.88
2018-01-01T10:22:17.497Z,994.83
2018-01-01T10:23:17.518Z,994.82
2018-01-01T10:24:17.544Z,994.82
2018-01-01T10:25:17.564Z,994.81
2018-01-01T10:26:17.579Z,994.76
2018-01-01T10:27:17.598Z,994.80
2018-01-01T10:28:17.624Z,994.70
2018-01-01T10:29:17.644Z,994.62
2018-01-01T10:30:17.659Z,994.64
2018-01-01T10:31:17.679Z,994.66
2018-01-01T10:32:17.703Z,994.59
2018-01-01T10:33:17.724Z,994.68
2018-01-01T10:34:17.736Z,994.60
2018-01-01T10:35:17.791Z,994.71
2018-01-01T10:36:17.783Z,994.64
2018-01-01T10:37:17.796Z,994.64
2018-01-01T10:38:17.822Z,994.65
2018-01-01T10:39:17.840Z,994.66
2018-01-01T10:40:17.862Z,994.57
2018-01-01T10:41:17.876Z,994.65
2018-01-01T10:42:17.902Z,994.66
2018-01-01T10:43:17.915Z,994.64
2018-01-01T10:44:17.941Z,994.64
2018-01-01T10:45:17.962Z,994.66
2018-01-01T10:46:17.975Z,994.66
2018-01-01T10:47:18.001Z,994.67
2018-01-01T10:48:18.015Z,994.62
2018-01-01T10:49:18.040Z,994.65
2018-01-01T10:50:18.054Z,994.60
2018-01-01T10:51:18.079Z,994.59
2018-01-01T10:52:18.098Z,994.63
2018-01-01T10:53:18.119Z,994.67
2018-01-01T10:54:18.133Z,994.62
2018-01-01T10:55:18.152Z,994.65
2018-01-01T10:56:18.178Z,994.56
2018-01-01T10:57:18.197Z,994.59
2018-01-01T10:58:18.211Z,994.53
2018-01-01T10:59:18.232Z,994.54
2018-01-01T11:00:18.257Z,994.50
2018-01-01T11:01:18.272Z,994.54
2018-01-01T11:02:18.324Z,994.49
2018-01-01T11:03:18.315Z,994.47
2018-01-01T11:04:18.337Z,994.47
2018-01-01T11:05:18.351Z,994.45
2018-01-01T11:06:18.375Z,994.48
2018-01-01T11:07:18.390Z,994.54
2018-01-01T11:08:18.415Z,994.44
2018-01-01T11:09:18.435Z,994.55
2018-01-01T11:10:18.449Z,994.43
2018-01-01T11:11:18.468Z,994.51
2018-01-01T11:12:18.494Z,994.49
2018-01-01T11:13:18.513Z,994.42
2018-01-01T11:14:18.526Z,994.52
2018-01-01T11:15:18.565Z,994.38
2018-01-01T11:16:18.654Z,994.40
2018-01-01T11:17:18.595Z,994.37
2018-01-01T11:18:18.604Z,994.40
2018-01-01T11:19:18.629Z,994.40
2018-01-01T11:20:18.646Z,994.30
2018-01-01T11:21:18.664Z,994.36
2018-01-01T11:22:18.705Z,994.24
2018-01-01T11:23:18.709Z,994.30
2018-01-01T11:24:18.723Z,994.32
2018-01-01T11:25:18.749Z,994.18
2018-01-01T11:26:18.763Z,994.22
2018-01-01T11:27:18.787Z,994.16
2018-01-01T11:28:18.809Z,994.16
2018-01-01T11:29:18.827Z,994.17
2018-01-01T11:30:18.840Z,994.15
2018-01-01T11:31:18.870Z,994.22
2018-01-01T11:32:18.913Z,994.17
2018-01-01T11:33:18.900Z,994.14
2018-01-01T11:34:18.928Z,994.15
2018-01-01T11:35:18.940Z,994.11
2018-01-01T11:36:18.969Z,994.16
2018-01-01T11:37:18.989Z,994.08
2018-01-01T11:38:19.001Z,994.10
2018-01-01T11:39:19.017Z,994.06
2018-01-01T11:40:19.043Z,994.02
2018-01-01T11:41:19.060Z,994.00
2018-01-01T11:42:19.076Z,993.95
2018-01-01T11:43:19.098Z,993.96
2018-01-01T11:44:19.122Z,994.04
2018-01-01T11:45:19.142Z,993.91
2018-01-01T11:46:19.157Z,993.83
2018-01-01T11:47:19.182Z,993.88
2018-01-01T11:48:19.203Z,993.88
2018-01-01T11:49:19.221Z,993.89
2018-01-01T11:50:19.239Z,993.87
2018-01-01T11:51:19.946Z,994.01
2018-01-01T11:52:19.693Z,993.92
2018-01-01T11:53:19.903Z,993.91
2018-01-01T11:54:19.353Z,993.97
2018-01-01T11:55:19.757Z,993.97
2018-01-01T11:56:19.355Z,993.85
2018-01-01T11:57:19.380Z,993.91
2018-01-01T11:58:19.400Z,993.91
2018-01-01T11:59:19.415Z,993.85
2018-01-01T12:00:19.440Z,993.87
2018-01-01T12:01:19.455Z,993.76
2018-01-01T12:02:19.484Z,993.79
2018-01-01T12:03:19.500Z,993.81
2018-01-01T12:04:19.519Z,993.74
2018-01-01T12:05:19.540Z,993.79
2018-01-01T12:06:19.559Z,993.73
2018-01-01T12:07:19.573Z,993.73
2018-01-01T12:08:19.600Z,993.76
2018-01-01T12:09:19.620Z,993.75
2018-01-01T12:10:19.636Z,993.66
2018-01-01T12:11:19.654Z,993.66
2018-01-01T12:12:19.807Z,993.79
2018-01-01T12:13:19.694Z,993.72
2018-01-01T12:14:19.723Z,993.65
2018-01-01T12:15:19.734Z,993.62
2018-01-01T12:16:19.754Z,993.56
2018-01-01T12:17:19.775Z,993.51
2018-01-01T12:18:19.795Z,993.49
2018-01-01T12:19:20.394Z,993.53
2018-01-01T12:20:19.841Z,993.49
2018-01-01T12:21:19.854Z,993.48
2018-01-01T12:22:19.880Z,993.41
2018-01-01T12:23:19.896Z,993.47
2018-01-01T12:24:19.921Z,993.37
2018-01-01T12:25:19.936Z,993.36
2018-01-01T12:26:19.961Z,993.43
2018-01-01T12:27:19.976Z,993.35
2018-01-01T12:28:20.002Z,993.40